sensor_id;sensor_type;location;lat;lon;timestamp;temperature;humidity
20246;DHT22;10281;54.406;18.556;2022-09-17T00:00:35;11.00;99.90
20246;DHT22;10281;54.406;18.556;2022-09-17T00:03:02;11.00;99.90
20246;DHT22;10281;54.406;18.556;2022-09-17T00:05:29;11.00;99.90
20246;DHT22;10281;54.406;18.556;2022-09-17T00:07:55;11.00;99.90
20246;DHT22;10281;54.406;18.556;2022-09-17T00:10:22;11.00;99.90
20246;DHT22;10281;54.406;18.556;2022-09-17T00:12:49;11.00;99.90
20246;DHT22;10281;54.406;18.556;2022-09-17T00:15:16;11.00;99.90
20246;DHT22;10281;54.406;18.556;2022-09-17T00:17:43;11.10;99.90
20246;DHT22;10281;54.406;18.556;2022-09-17T00:20:10;11.10;99.90
20246;DHT22;10281;54.406;18.556;2022-09-17T00:22:38;11.10;99.90
20246;DHT22;10281;54.406;18.556;2022-09-17T00:25:05;11.10;99.90
20246;DHT22;10281;54.406;18.556;2022-09-17T00:27:33;11.10;99.90
20246;DHT22;10281;54.406;18.556;2022-09-17T00:30:00;11.10;99.90
20246;DHT22;10281;54.406;18.556;2022-09-17T00:32:26;11.10;99.90
20246;DHT22;10281;54.406;18.556;2022-09-17T00:34:53;11.10;99.90
20246;DHT22;10281;54.406;18.556;2022-09-17T00:37:21;11.10;99.90
20246;DHT22;10281;54.406;18.556;2022-09-17T00:39:47;11.10;99.90
20246;DHT22;10281;54.406;18.556;2022-09-17T00:42:15;11.10;99.90
20246;DHT22;10281;54.406;18.556;2022-09-17T00:44:48;11.10;99.90
20246;DHT22;10281;54.406;18.556;2022-09-17T00:47:38;11.10;99.90
20246;DHT22;10281;54.406;18.556;2022-09-17T00:50:13;11.10;99.90
20246;DHT22;10281;54.406;18.556;2022-09-17T00:52:43;11.20;99.90
20246;DHT22;10281;54.406;18.556;2022-09-17T00:55:18;11.20;99.90
20246;DHT22;10281;54.406;18.556;2022-09-17T00:57:45;11.20;99.90
20246;DHT22;10281;54.406;18.556;2022-09-17T01:00:14;11.20;99.90
20246;DHT22;10281;54.406;18.556;2022-09-17T01:02:42;11.20;99.90
20246;DHT22;10281;54.406;18.556;2022-09-17T01:05:10;11.30;99.90
20246;DHT22;10281;54.406;18.556;2022-09-17T01:11:06;11.30;99.90
20246;DHT22;10281;54.406;18.556;2022-09-17T01:13:55;11.30;99.90
20246;DHT22;10281;54.406;18.556;2022-09-17T01:22:17;11.40;99.90
20246;DHT22;10281;54.406;18.556;2022-09-17T01:24:49;11.40;99.90
20246;DHT22;10281;54.406;18.556;2022-09-17T01:27:41;11.40;99.90
20246;DHT22;10281;54.406;18.556;2022-09-17T01:30:30;11.40;99.90
20246;DHT22;10281;54.406;18.556;2022-09-17T01:33:05;11.40;99.90
20246;DHT22;10281;54.406;18.556;2022-09-17T01:35:50;11.40;99.90
20246;DHT22;10281;54.406;18.556;2022-09-17T01:38:26;11.40;99.90
20246;DHT22;10281;54.406;18.556;2022-09-17T01:41:18;11.40;99.90
20246;DHT22;10281;54.406;18.556;2022-09-17T01:43:50;11.40;99.90
20246;DHT22;10281;54.406;18.556;2022-09-17T01:46:20;11.40;99.90
20246;DHT22;10281;54.406;18.556;2022-09-17T01:48:49;11.30;99.90
20246;DHT22;10281;54.406;18.556;2022-09-17T01:51:21;11.40;99.90
20246;DHT22;10281;54.406;18.556;2022-09-17T01:53:57;11.20;99.90
20246;DHT22;10281;54.406;18.556;2022-09-17T01:56:30;11.30;99.90
20246;DHT22;10281;54.406;18.556;2022-09-17T01:59:02;11.30;99.90
20246;DHT22;10281;54.406;18.556;2022-09-17T02:01:30;11.30;99.90
20246;DHT22;10281;54.406;18.556;2022-09-17T02:04:01;11.30;99.90
20246;DHT22;10281;54.406;18.556;2022-09-17T02:06:30;11.30;99.90
20246;DHT22;10281;54.406;18.556;2022-09-17T02:09:04;11.30;99.90
20246;DHT22;10281;54.406;18.556;2022-09-17T02:11:33;11.20;99.90
20246;DHT22;10281;54.406;18.556;2022-09-17T02:14:07;11.30;99.90
20246;DHT22;10281;54.406;18.556;2022-09-17T02:16:36;11.20;99.90
20246;DHT22;10281;54.406;18.556;2022-09-17T02:19:09;11.20;99.90
20246;DHT22;10281;54.406;18.556;2022-09-17T02:22:16;11.20;99.90
20246;DHT22;10281;54.406;18.556;2022-09-17T02:24:36;11.20;99.90
20246;DHT22;10281;54.406;18.556;2022-09-17T02:27:06;11.20;99.90
20246;DHT22;10281;54.406;18.556;2022-09-17T02:29:37;11.20;99.90
20246;DHT22;10281;54.406;18.556;2022-09-17T02:32:05;11.20;99.90
20246;DHT22;10281;54.406;18.556;2022-09-17T02:34:32;11.20;99.90
20246;DHT22;10281;54.406;18.556;2022-09-17T02:36:59;11.10;99.90
20246;DHT22;10281;54.406;18.556;2022-09-17T02:39:27;11.10;99.90
20246;DHT22;10281;54.406;18.556;2022-09-17T02:42:30;11.10;99.90
20246;DHT22;10281;54.406;18.556;2022-09-17T02:45:05;11.10;99.90
20246;DHT22;10281;54.406;18.556;2022-09-17T02:47:44;11.10;99.90
20246;DHT22;10281;54.406;18.556;2022-09-17T02:50:19;11.10;99.90
20246;DHT22;10281;54.406;18.556;2022-09-17T02:52:56;11.10;99.90
20246;DHT22;10281;54.406;18.556;2022-09-17T02:55:35;11.10;99.90
20246;DHT22;10281;54.406;18.556;2022-09-17T02:58:12;11.10;99.90
20246;DHT22;10281;54.406;18.556;2022-09-17T03:00:38;11.10;99.90
20246;DHT22;10281;54.406;18.556;2022-09-17T03:03:16;11.10;99.90
20246;DHT22;10281;54.406;18.556;2022-09-17T03:05:42;11.10;99.90
20246;DHT22;10281;54.406;18.556;2022-09-17T03:08:12;11.10;99.90
20246;DHT22;10281;54.406;18.556;2022-09-17T03:10:39;11.10;99.90
20246;DHT22;10281;54.406;18.556;2022-09-17T03:13:06;11.10;99.90
20246;DHT22;10281;54.406;18.556;2022-09-17T03:15:32;11.10;99.90
20246;DHT22;10281;54.406;18.556;2022-09-17T03:17:59;11.20;99.90
20246;DHT22;10281;54.406;18.556;2022-09-17T03:20:26;11.10;99.90
20246;DHT22;10281;54.406;18.556;2022-09-17T03:22:52;11.10;99.90
20246;DHT22;10281;54.406;18.556;2022-09-17T03:25:19;11.10;99.90
20246;DHT22;10281;54.406;18.556;2022-09-17T03:27:45;11.10;99.90
20246;DHT22;10281;54.406;18.556;2022-09-17T03:30:13;11.10;99.90
20246;DHT22;10281;54.406;18.556;2022-09-17T03:32:39;11.10;99.90
20246;DHT22;10281;54.406;18.556;2022-09-17T03:35:06;11.10;99.90
20246;DHT22;10281;54.406;18.556;2022-09-17T03:37:34;11.10;99.90
20246;DHT22;10281;54.406;18.556;2022-09-17T03:40:01;11.00;99.90
20246;DHT22;10281;54.406;18.556;2022-09-17T03:42:28;11.00;99.90
20246;DHT22;10281;54.406;18.556;2022-09-17T03:44:55;11.00;99.90
20246;DHT22;10281;54.406;18.556;2022-09-17T03:47:22;11.00;99.90
20246;DHT22;10281;54.406;18.556;2022-09-17T03:49:48;10.90;99.90
20246;DHT22;10281;54.406;18.556;2022-09-17T03:52:17;10.80;99.90
20246;DHT22;10281;54.406;18.556;2022-09-17T03:54:44;10.80;99.90
20246;DHT22;10281;54.406;18.556;2022-09-17T03:57:10;10.80;99.90
20246;DHT22;10281;54.406;18.556;2022-09-17T03:59:37;10.70;99.90
20246;DHT22;10281;54.406;18.556;2022-09-17T04:02:03;10.70;99.90
20246;DHT22;10281;54.406;18.556;2022-09-17T04:04:30;10.70;99.90
20246;DHT22;10281;54.406;18.556;2022-09-17T04:06:57;10.70;99.90
20246;DHT22;10281;54.406;18.556;2022-09-17T04:09:24;10.70;99.90
20246;DHT22;10281;54.406;18.556;2022-09-17T04:11:50;10.70;99.90
20246;DHT22;10281;54.406;18.556;2022-09-17T04:14:17;10.70;99.90
20246;DHT22;10281;54.406;18.556;2022-09-17T04:16:43;10.70;99.90
20246;DHT22;10281;54.406;18.556;2022-09-17T04:19:10;10.70;99.90
20246;DHT22;10281;54.406;18.556;2022-09-17T04:21:37;10.70;99.90
20246;DHT22;10281;54.406;18.556;2022-09-17T04:24:03;10.70;99.90
20246;DHT22;10281;54.406;18.556;2022-09-17T04:26:30;10.70;99.90
20246;DHT22;10281;54.406;18.556;2022-09-17T04:28:56;10.70;99.90
20246;DHT22;10281;54.406;18.556;2022-09-17T04:31:23;10.70;99.90
20246;DHT22;10281;54.406;18.556;2022-09-17T04:33:52;10.70;99.90
20246;DHT22;10281;54.406;18.556;2022-09-17T04:36:18;10.70;99.90
20246;DHT22;10281;54.406;18.556;2022-09-17T04:38:47;10.70;99.90
20246;DHT22;10281;54.406;18.556;2022-09-17T04:41:14;10.80;99.90
20246;DHT22;10281;54.406;18.556;2022-09-17T04:43:41;10.80;99.90
20246;DHT22;10281;54.406;18.556;2022-09-17T04:46:08;10.80;99.90
20246;DHT22;10281;54.406;18.556;2022-09-17T04:48:36;10.80;99.90
20246;DHT22;10281;54.406;18.556;2022-09-17T04:51:03;10.80;99.90
20246;DHT22;10281;54.406;18.556;2022-09-17T04:53:29;10.80;99.90
20246;DHT22;10281;54.406;18.556;2022-09-17T04:55:56;10.80;99.90
20246;DHT22;10281;54.406;18.556;2022-09-17T04:58:22;10.80;99.90
20246;DHT22;10281;54.406;18.556;2022-09-17T05:00:49;10.90;99.90
20246;DHT22;10281;54.406;18.556;2022-09-17T05:03:16;10.90;99.90
20246;DHT22;10281;54.406;18.556;2022-09-17T05:05:42;11.00;99.90
20246;DHT22;10281;54.406;18.556;2022-09-17T05:08:09;11.00;99.90
20246;DHT22;10281;54.406;18.556;2022-09-17T05:10:36;11.00;99.90
20246;DHT22;10281;54.406;18.556;2022-09-17T05:13:03;11.10;99.90
20246;DHT22;10281;54.406;18.556;2022-09-17T05:15:29;11.10;99.90
20246;DHT22;10281;54.406;18.556;2022-09-17T05:17:56;11.20;99.90
20246;DHT22;10281;54.406;18.556;2022-09-17T05:20:23;11.30;99.90
20246;DHT22;10281;54.406;18.556;2022-09-17T05:22:51;11.30;99.90
20246;DHT22;10281;54.406;18.556;2022-09-17T05:25:19;11.30;99.90
20246;DHT22;10281;54.406;18.556;2022-09-17T05:27:48;11.40;99.90
20246;DHT22;10281;54.406;18.556;2022-09-17T05:30:14;11.40;99.90
20246;DHT22;10281;54.406;18.556;2022-09-17T05:32:41;11.40;99.90
20246;DHT22;10281;54.406;18.556;2022-09-17T05:35:09;11.40;99.90
20246;DHT22;10281;54.406;18.556;2022-09-17T05:37:36;11.50;99.90
20246;DHT22;10281;54.406;18.556;2022-09-17T05:40:03;11.60;99.90
20246;DHT22;10281;54.406;18.556;2022-09-17T05:42:32;11.60;99.90
20246;DHT22;10281;54.406;18.556;2022-09-17T05:44:58;11.70;99.90
20246;DHT22;10281;54.406;18.556;2022-09-17T05:47:25;11.70;99.90
20246;DHT22;10281;54.406;18.556;2022-09-17T05:49:52;11.80;99.90
20246;DHT22;10281;54.406;18.556;2022-09-17T05:52:18;11.80;99.90
20246;DHT22;10281;54.406;18.556;2022-09-17T05:54:45;11.90;99.90
20246;DHT22;10281;54.406;18.556;2022-09-17T05:57:12;11.90;99.90
20246;DHT22;10281;54.406;18.556;2022-09-17T05:59:40;12.00;99.90
20246;DHT22;10281;54.406;18.556;2022-09-17T06:02:11;12.10;99.90
20246;DHT22;10281;54.406;18.556;2022-09-17T06:04:37;12.10;99.90
20246;DHT22;10281;54.406;18.556;2022-09-17T06:07:06;12.10;99.90
20246;DHT22;10281;54.406;18.556;2022-09-17T06:09:35;12.10;99.90
20246;DHT22;10281;54.406;18.556;2022-09-17T06:12:03;12.10;99.90
20246;DHT22;10281;54.406;18.556;2022-09-17T06:14:30;12.00;99.90
20246;DHT22;10281;54.406;18.556;2022-09-17T06:16:57;12.00;99.90
20246;DHT22;10281;54.406;18.556;2022-09-17T06:19:24;12.00;99.90
20246;DHT22;10281;54.406;18.556;2022-09-17T06:21:51;11.90;99.90
20246;DHT22;10281;54.406;18.556;2022-09-17T06:24:18;11.90;99.90
20246;DHT22;10281;54.406;18.556;2022-09-17T06:26:44;11.90;99.90
20246;DHT22;10281;54.406;18.556;2022-09-17T06:29:12;11.90;99.90
20246;DHT22;10281;54.406;18.556;2022-09-17T06:31:40;11.90;99.90
20246;DHT22;10281;54.406;18.556;2022-09-17T06:34:09;11.90;99.90
20246;DHT22;10281;54.406;18.556;2022-09-17T06:36:36;11.90;99.90
20246;DHT22;10281;54.406;18.556;2022-09-17T06:39:02;11.90;99.90
20246;DHT22;10281;54.406;18.556;2022-09-17T06:41:29;11.90;99.90
20246;DHT22;10281;54.406;18.556;2022-09-17T06:43:56;11.90;99.90
20246;DHT22;10281;54.406;18.556;2022-09-17T06:46:22;12.00;99.90
20246;DHT22;10281;54.406;18.556;2022-09-17T06:48:49;12.00;99.90
20246;DHT22;10281;54.406;18.556;2022-09-17T06:51:15;12.00;99.90
20246;DHT22;10281;54.406;18.556;2022-09-17T06:53:43;12.00;99.90
20246;DHT22;10281;54.406;18.556;2022-09-17T06:56:09;12.10;99.90
20246;DHT22;10281;54.406;18.556;2022-09-17T06:58:36;12.10;99.90
20246;DHT22;10281;54.406;18.556;2022-09-17T07:01:04;12.10;99.90
20246;DHT22;10281;54.406;18.556;2022-09-17T07:03:32;12.20;99.90
20246;DHT22;10281;54.406;18.556;2022-09-17T07:05:59;12.30;99.90
20246;DHT22;10281;54.406;18.556;2022-09-17T07:08:26;12.40;99.90
20246;DHT22;10281;54.406;18.556;2022-09-17T07:10:55;12.50;99.90
20246;DHT22;10281;54.406;18.556;2022-09-17T07:13:22;12.60;99.90
20246;DHT22;10281;54.406;18.556;2022-09-17T07:15:55;12.60;99.90
20246;DHT22;10281;54.406;18.556;2022-09-17T07:18:22;12.70;99.90
20246;DHT22;10281;54.406;18.556;2022-09-17T07:20:53;12.70;99.90
20246;DHT22;10281;54.406;18.556;2022-09-17T07:23:22;12.70;99.90
20246;DHT22;10281;54.406;18.556;2022-09-17T07:25:52;12.80;99.90
20246;DHT22;10281;54.406;18.556;2022-09-17T07:28:20;12.80;99.90
20246;DHT22;10281;54.406;18.556;2022-09-17T07:30:48;12.90;99.90
20246;DHT22;10281;54.406;18.556;2022-09-17T07:33:17;12.90;99.90
20246;DHT22;10281;54.406;18.556;2022-09-17T07:36:00;13.00;99.90
20246;DHT22;10281;54.406;18.556;2022-09-17T07:38:28;13.00;99.90
20246;DHT22;10281;54.406;18.556;2022-09-17T07:41:00;13.10;99.90
20246;DHT22;10281;54.406;18.556;2022-09-17T07:43:29;13.10;99.90
20246;DHT22;10281;54.406;18.556;2022-09-17T07:45:58;13.20;99.90
20246;DHT22;10281;54.406;18.556;2022-09-17T07:48:26;13.30;99.90
20246;DHT22;10281;54.406;18.556;2022-09-17T07:50:53;13.30;99.90
20246;DHT22;10281;54.406;18.556;2022-09-17T07:53:20;13.40;99.90
20246;DHT22;10281;54.406;18.556;2022-09-17T07:55:52;13.50;99.90
20246;DHT22;10281;54.406;18.556;2022-09-17T07:58:20;13.60;99.90
20246;DHT22;10281;54.406;18.556;2022-09-17T08:00:47;13.80;99.90
20246;DHT22;10281;54.406;18.556;2022-09-17T08:03:15;13.90;99.90
20246;DHT22;10281;54.406;18.556;2022-09-17T08:05:41;14.00;99.90
20246;DHT22;10281;54.406;18.556;2022-09-17T08:08:08;14.10;99.90
20246;DHT22;10281;54.406;18.556;2022-09-17T08:10:35;14.10;99.90
20246;DHT22;10281;54.406;18.556;2022-09-17T08:13:02;14.20;99.90
20246;DHT22;10281;54.406;18.556;2022-09-17T08:15:28;14.30;99.90
20246;DHT22;10281;54.406;18.556;2022-09-17T08:17:55;14.40;99.90
20246;DHT22;10281;54.406;18.556;2022-09-17T08:20:21;14.50;99.90
20246;DHT22;10281;54.406;18.556;2022-09-17T08:22:58;14.50;99.90
20246;DHT22;10281;54.406;18.556;2022-09-17T08:25:24;14.50;99.90
20246;DHT22;10281;54.406;18.556;2022-09-17T08:27:53;14.50;99.90
20246;DHT22;10281;54.406;18.556;2022-09-17T08:30:21;14.50;99.90
20246;DHT22;10281;54.406;18.556;2022-09-17T08:32:48;14.60;99.90
20246;DHT22;10281;54.406;18.556;2022-09-17T08:35:14;14.60;99.90
20246;DHT22;10281;54.406;18.556;2022-09-17T08:37:41;14.70;99.90
20246;DHT22;10281;54.406;18.556;2022-09-17T08:40:15;14.70;99.90
20246;DHT22;10281;54.406;18.556;2022-09-17T08:42:48;14.70;99.90
20246;DHT22;10281;54.406;18.556;2022-09-17T08:45:13;14.70;99.90
20246;DHT22;10281;54.406;18.556;2022-09-17T08:47:42;14.90;99.90
20246;DHT22;10281;54.406;18.556;2022-09-17T08:50:14;14.90;99.90
20246;DHT22;10281;54.406;18.556;2022-09-17T08:53:55;15.00;99.90
20246;DHT22;10281;54.406;18.556;2022-09-17T08:55:41;14.90;99.90
20246;DHT22;10281;54.406;18.556;2022-09-17T09:01:01;15.10;99.90
20246;DHT22;10281;54.406;18.556;2022-09-17T09:06:18;15.30;99.90
20246;DHT22;10281;54.406;18.556;2022-09-17T09:08:53;15.40;99.90
20246;DHT22;10281;54.406;18.556;2022-09-17T09:11:24;15.50;99.90
20246;DHT22;10281;54.406;18.556;2022-09-17T09:14:03;15.60;99.90
20246;DHT22;10281;54.406;18.556;2022-09-17T09:16:33;15.60;99.90
20246;DHT22;10281;54.406;18.556;2022-09-17T09:19:19;15.60;99.90
20246;DHT22;10281;54.406;18.556;2022-09-17T09:22:05;15.60;99.90
20246;DHT22;10281;54.406;18.556;2022-09-17T09:24:40;15.50;99.90
20246;DHT22;10281;54.406;18.556;2022-09-17T09:27:16;15.40;99.90
20246;DHT22;10281;54.406;18.556;2022-09-17T09:29:53;15.40;99.90
20246;DHT22;10281;54.406;18.556;2022-09-17T09:35:06;15.50;99.90
20246;DHT22;10281;54.406;18.556;2022-09-17T09:37:36;15.50;99.90
20246;DHT22;10281;54.406;18.556;2022-09-17T09:43:02;15.70;99.90
20246;DHT22;10281;54.406;18.556;2022-09-17T09:45:51;15.80;99.90
20246;DHT22;10281;54.406;18.556;2022-09-17T09:48:26;15.80;99.90
20246;DHT22;10281;54.406;18.556;2022-09-17T09:53:58;16.00;99.90
20246;DHT22;10281;54.406;18.556;2022-09-17T09:56:32;15.80;99.90
20246;DHT22;10281;54.406;18.556;2022-09-17T09:59:05;15.80;99.90
20246;DHT22;10281;54.406;18.556;2022-09-17T10:01:33;15.90;99.90
20246;DHT22;10281;54.406;18.556;2022-09-17T10:04:14;15.90;99.90
20246;DHT22;10281;54.406;18.556;2022-09-17T10:06:48;16.00;99.90
20246;DHT22;10281;54.406;18.556;2022-09-17T10:09:21;16.10;99.90
20246;DHT22;10281;54.406;18.556;2022-09-17T10:14:52;16.30;99.90
20246;DHT22;10281;54.406;18.556;2022-09-17T10:17:27;16.50;99.90
20246;DHT22;10281;54.406;18.556;2022-09-17T10:22:49;16.60;99.90
20246;DHT22;10281;54.406;18.556;2022-09-17T10:25:26;16.70;99.90
20246;DHT22;10281;54.406;18.556;2022-09-17T10:27:58;16.70;99.90
20246;DHT22;10281;54.406;18.556;2022-09-17T10:30:30;16.70;99.90
20246;DHT22;10281;54.406;18.556;2022-09-17T10:33:10;16.80;99.90
20246;DHT22;10281;54.406;18.556;2022-09-17T10:36:04;16.90;99.90
20246;DHT22;10281;54.406;18.556;2022-09-17T10:38:39;16.90;99.90
20246;DHT22;10281;54.406;18.556;2022-09-17T10:41:13;17.00;99.90
20246;DHT22;10281;54.406;18.556;2022-09-17T10:43:46;17.20;99.90
20246;DHT22;10281;54.406;18.556;2022-09-17T10:46:22;17.30;99.90
20246;DHT22;10281;54.406;18.556;2022-09-17T10:49:16;17.40;99.90
20246;DHT22;10281;54.406;18.556;2022-09-17T10:51:46;17.40;99.90
20246;DHT22;10281;54.406;18.556;2022-09-17T10:54:25;17.20;99.90
20246;DHT22;10281;54.406;18.556;2022-09-17T10:56:53;17.10;99.90
20246;DHT22;10281;54.406;18.556;2022-09-17T10:59:36;16.90;99.90
20246;DHT22;10281;54.406;18.556;2022-09-17T11:02:23;16.70;99.90
20246;DHT22;10281;54.406;18.556;2022-09-17T11:04:53;16.30;99.90
20246;DHT22;10281;54.406;18.556;2022-09-17T11:07:31;15.80;99.90
20246;DHT22;10281;54.406;18.556;2022-09-17T11:10:10;15.30;99.90
20246;DHT22;10281;54.406;18.556;2022-09-17T11:12:44;14.00;99.90
20246;DHT22;10281;54.406;18.556;2022-09-17T11:15:28;13.50;99.90
20246;DHT22;10281;54.406;18.556;2022-09-17T11:18:05;13.30;99.90
20246;DHT22;10281;54.406;18.556;2022-09-17T11:20:57;13.20;99.90
20246;DHT22;10281;54.406;18.556;2022-09-17T11:23:41;13.30;99.90
20246;DHT22;10281;54.406;18.556;2022-09-17T11:26:17;13.30;99.90
20246;DHT22;10281;54.406;18.556;2022-09-17T11:28:58;13.40;99.90
20246;DHT22;10281;54.406;18.556;2022-09-17T11:31:33;13.50;99.90
20246;DHT22;10281;54.406;18.556;2022-09-17T11:34:36;13.60;99.90
20246;DHT22;10281;54.406;18.556;2022-09-17T11:37:11;13.70;99.90
20246;DHT22;10281;54.406;18.556;2022-09-17T11:39:48;13.80;99.90
20246;DHT22;10281;54.406;18.556;2022-09-17T11:42:19;13.80;99.90
20246;DHT22;10281;54.406;18.556;2022-09-17T11:44:53;13.80;99.90
20246;DHT22;10281;54.406;18.556;2022-09-17T11:47:23;14.00;99.90
20246;DHT22;10281;54.406;18.556;2022-09-17T11:49:59;14.10;99.90
20246;DHT22;10281;54.406;18.556;2022-09-17T11:52:36;14.20;99.90
20246;DHT22;10281;54.406;18.556;2022-09-17T11:55:17;14.30;99.90
20246;DHT22;10281;54.406;18.556;2022-09-17T11:57:45;14.40;99.90
20246;DHT22;10281;54.406;18.556;2022-09-17T12:00:16;14.50;99.90
20246;DHT22;10281;54.406;18.556;2022-09-17T12:02:50;14.40;99.90
20246;DHT22;10281;54.406;18.556;2022-09-17T12:05:24;14.40;99.90
20246;DHT22;10281;54.406;18.556;2022-09-17T12:07:58;14.50;99.90
20246;DHT22;10281;54.406;18.556;2022-09-17T12:10:48;14.40;99.90
20246;DHT22;10281;54.406;18.556;2022-09-17T12:16:06;14.30;99.90
20246;DHT22;10281;54.406;18.556;2022-09-17T12:18:58;14.00;99.90
20246;DHT22;10281;54.406;18.556;2022-09-17T12:23:58;13.90;99.90
20246;DHT22;10281;54.406;18.556;2022-09-17T12:26:54;14.00;99.90
20246;DHT22;10281;54.406;18.556;2022-09-17T12:29:30;14.00;99.90
20246;DHT22;10281;54.406;18.556;2022-09-17T12:32:02;14.00;99.90
20246;DHT22;10281;54.406;18.556;2022-09-17T12:37:31;14.00;99.90
20246;DHT22;10281;54.406;18.556;2022-09-17T12:40:11;14.00;99.90
20246;DHT22;10281;54.406;18.556;2022-09-17T12:43:00;13.90;99.90
20246;DHT22;10281;54.406;18.556;2022-09-17T12:48:28;13.90;99.90
20246;DHT22;10281;54.406;18.556;2022-09-17T12:56:57;13.80;99.90
20246;DHT22;10281;54.406;18.556;2022-09-17T12:59:29;13.70;99.90
20246;DHT22;10281;54.406;18.556;2022-09-17T13:02:01;13.70;99.90
20246;DHT22;10281;54.406;18.556;2022-09-17T13:07:17;13.60;99.90
20246;DHT22;10281;54.406;18.556;2022-09-17T13:10:08;13.60;99.90
20246;DHT22;10281;54.406;18.556;2022-09-17T13:12:43;13.50;99.90
20246;DHT22;10281;54.406;18.556;2022-09-17T13:15:19;13.50;99.90
20246;DHT22;10281;54.406;18.556;2022-09-17T13:17:55;13.60;99.90
20246;DHT22;10281;54.406;18.556;2022-09-17T13:20:26;13.60;99.90
20246;DHT22;10281;54.406;18.556;2022-09-17T13:22:55;13.60;99.90
20246;DHT22;10281;54.406;18.556;2022-09-17T13:25:24;13.60;99.90
20246;DHT22;10281;54.406;18.556;2022-09-17T13:28:09;13.60;99.90
20246;DHT22;10281;54.406;18.556;2022-09-17T13:31:02;13.60;99.90
20246;DHT22;10281;54.406;18.556;2022-09-17T13:38:56;13.60;99.90
20246;DHT22;10281;54.406;18.556;2022-09-17T13:41:24;13.70;99.90
20246;DHT22;10281;54.406;18.556;2022-09-17T13:43:51;13.80;99.90
20246;DHT22;10281;54.406;18.556;2022-09-17T13:46:21;13.80;99.90
20246;DHT22;10281;54.406;18.556;2022-09-17T13:48:52;13.90;99.90
20246;DHT22;10281;54.406;18.556;2022-09-17T13:51:44;14.00;99.90
20246;DHT22;10281;54.406;18.556;2022-09-17T13:54:12;14.10;99.90
20246;DHT22;10281;54.406;18.556;2022-09-17T13:56:48;14.10;99.90
20246;DHT22;10281;54.406;18.556;2022-09-17T13:59:20;14.20;99.90
20246;DHT22;10281;54.406;18.556;2022-09-17T14:02:03;14.30;99.90
20246;DHT22;10281;54.406;18.556;2022-09-17T14:04:46;14.30;99.90
20246;DHT22;10281;54.406;18.556;2022-09-17T14:12:56;14.50;99.90
20246;DHT22;10281;54.406;18.556;2022-09-17T14:15:34;14.50;99.90
20246;DHT22;10281;54.406;18.556;2022-09-17T14:18:04;14.50;99.90
20246;DHT22;10281;54.406;18.556;2022-09-17T14:20:32;14.60;99.90
20246;DHT22;10281;54.406;18.556;2022-09-17T14:23:01;14.60;99.90
20246;DHT22;10281;54.406;18.556;2022-09-17T14:25:36;14.60;99.90
20246;DHT22;10281;54.406;18.556;2022-09-17T14:28:38;14.60;99.90
20246;DHT22;10281;54.406;18.556;2022-09-17T14:30:49;14.60;99.90
20246;DHT22;10281;54.406;18.556;2022-09-17T14:33:25;14.50;99.90
20246;DHT22;10281;54.406;18.556;2022-09-17T14:35:55;14.40;99.90
20246;DHT22;10281;54.406;18.556;2022-09-17T14:38:30;14.40;99.90
20246;DHT22;10281;54.406;18.556;2022-09-17T14:41:03;14.30;99.90
20246;DHT22;10281;54.406;18.556;2022-09-17T14:43:40;14.30;99.90
20246;DHT22;10281;54.406;18.556;2022-09-17T14:46:09;14.20;99.90
20246;DHT22;10281;54.406;18.556;2022-09-17T14:48:37;14.10;99.90
20246;DHT22;10281;54.406;18.556;2022-09-17T14:51:21;14.20;99.90
20246;DHT22;10281;54.406;18.556;2022-09-17T14:53:49;14.10;99.90
20246;DHT22;10281;54.406;18.556;2022-09-17T14:56:19;14.00;99.90
20246;DHT22;10281;54.406;18.556;2022-09-17T14:58:50;13.90;99.90
20246;DHT22;10281;54.406;18.556;2022-09-17T15:01:23;13.90;99.90
20246;DHT22;10281;54.406;18.556;2022-09-17T15:04:26;13.90;99.90
20246;DHT22;10281;54.406;18.556;2022-09-17T15:07:10;13.80;99.90
20246;DHT22;10281;54.406;18.556;2022-09-17T15:09:37;13.80;99.90
20246;DHT22;10281;54.406;18.556;2022-09-17T15:12:04;13.80;99.90
20246;DHT22;10281;54.406;18.556;2022-09-17T15:14:35;13.80;99.90
20246;DHT22;10281;54.406;18.556;2022-09-17T15:17:03;13.80;99.90
20246;DHT22;10281;54.406;18.556;2022-09-17T15:19:36;13.80;99.90
20246;DHT22;10281;54.406;18.556;2022-09-17T15:22:07;13.80;99.90
20246;DHT22;10281;54.406;18.556;2022-09-17T15:24:42;13.80;99.90
20246;DHT22;10281;54.406;18.556;2022-09-17T15:27:29;13.80;99.90
20246;DHT22;10281;54.406;18.556;2022-09-17T15:30:02;13.80;99.90
20246;DHT22;10281;54.406;18.556;2022-09-17T15:32:28;13.80;99.90
20246;DHT22;10281;54.406;18.556;2022-09-17T15:37:33;13.90;99.90
20246;DHT22;10281;54.406;18.556;2022-09-17T15:40:10;13.90;99.90
20246;DHT22;10281;54.406;18.556;2022-09-17T15:42:35;13.80;99.90
20246;DHT22;10281;54.406;18.556;2022-09-17T15:45:15;13.80;99.90
20246;DHT22;10281;54.406;18.556;2022-09-17T15:47:51;13.80;99.90
20246;DHT22;10281;54.406;18.556;2022-09-17T15:50:21;13.70;99.90
20246;DHT22;10281;54.406;18.556;2022-09-17T15:52:49;13.70;99.90
20246;DHT22;10281;54.406;18.556;2022-09-17T15:55:34;13.70;99.90
20246;DHT22;10281;54.406;18.556;2022-09-17T15:58:04;13.70;99.90
20246;DHT22;10281;54.406;18.556;2022-09-17T16:00:31;13.70;99.90
20246;DHT22;10281;54.406;18.556;2022-09-17T16:03:15;13.70;99.90
20246;DHT22;10281;54.406;18.556;2022-09-17T16:05:42;13.60;99.90
20246;DHT22;10281;54.406;18.556;2022-09-17T16:08:17;13.60;99.90
20246;DHT22;10281;54.406;18.556;2022-09-17T16:10:45;13.60;99.90
20246;DHT22;10281;54.406;18.556;2022-09-17T16:13:12;13.60;99.90
20246;DHT22;10281;54.406;18.556;2022-09-17T16:15:38;13.60;99.90
20246;DHT22;10281;54.406;18.556;2022-09-17T16:18:08;13.50;99.90
20246;DHT22;10281;54.406;18.556;2022-09-17T16:20:33;13.50;99.90
20246;DHT22;10281;54.406;18.556;2022-09-17T16:23:00;13.50;99.90
20246;DHT22;10281;54.406;18.556;2022-09-17T16:25:27;13.50;99.90
20246;DHT22;10281;54.406;18.556;2022-09-17T16:27:59;13.50;99.90
20246;DHT22;10281;54.406;18.556;2022-09-17T16:30:27;13.50;99.90
20246;DHT22;10281;54.406;18.556;2022-09-17T16:32:54;13.50;99.90
20246;DHT22;10281;54.406;18.556;2022-09-17T16:35:22;13.40;99.90
20246;DHT22;10281;54.406;18.556;2022-09-17T16:37:50;13.40;99.90
20246;DHT22;10281;54.406;18.556;2022-09-17T16:40:18;13.40;99.90
20246;DHT22;10281;54.406;18.556;2022-09-17T16:42:45;13.40;99.90
20246;DHT22;10281;54.406;18.556;2022-09-17T16:45:12;13.30;99.90